Time;durP1;ratioP1;P1;durP2;ratioP2;P2;SDS_P1;SDS_P2;PMS_P1;PMS_P2;Temp;Humidity;BMP_temperature;BMP_pressure;BME280_temperature;BME280_humidity;BME280_pressure;Samples;Min_cycle;Max_cycle;Signal;HPM_P1;HPM_P2
2022/05/22 00:01:27;;;;;;;0.50;0.40;;;17.10;99.90;;;;;;5115630;28;20539;-58
2022/05/22 00:03:54;;;;;;;1.00;0.47;;;17.10;99.90;;;;;;5112477;28;20471;-58
2022/05/22 00:06:21;;;;;;;0.70;0.40;;;16.80;99.90;;;;;;5116623;28;20463;-58
2022/05/22 00:08:48;;;;;;;2.70;0.40;;;16.40;1.00;;;;;;5113344;28;20465;-59
2022/05/22 00:11:16;;;;;;;1.03;0.40;;;16.20;1.00;;;;;;5114096;28;20509;-58
2022/05/22 00:13:43;;;;;;;0.73;0.50;;;16.20;37.30;;;;;;5115290;28;20722;-58
2022/05/22 00:18:54;;;;;;;1.00;0.40;;;16.40;99.90;;;;;;5114402;28;20447;-59
2022/05/22 00:21:21;;;;;;;0.80;0.50;;;16.50;1.00;;;;;;5113994;28;20448;-59
2022/05/22 00:23:48;;;;;;;0.60;0.40;;;16.50;1.00;;;;;;5115179;28;20448;-58
2022/05/22 00:26:16;;;;;;;0.70;0.50;;;16.60;1.00;;;;;;5109469;28;20909;-58
2022/05/22 00:28:43;;;;;;;0.90;0.40;;;16.60;1.00;;;;;;5114960;28;20461;-58
2022/05/22 00:31:10;;;;;;;0.90;0.40;;;16.70;1.00;;;;;;5115350;28;20535;-59
2022/05/22 00:33:37;;;;;;;0.60;0.40;;;16.60;1.00;;;;;;5115796;28;20966;-59
2022/05/22 00:36:04;;;;;;;0.70;0.50;;;16.60;1.00;;;;;;5110298;28;20487;-58
2022/05/22 00:38:31;;;;;;;0.50;0.40;;;16.60;1.00;;;;;;5112837;28;20463;-59
2022/05/22 00:40:58;;;;;;;1.10;0.40;;;16.50;1.00;;;;;;5114800;28;20449;-59
2022/05/22 00:43:28;;;;;;;0.83;0.43;;;16.30;1.00;;;;;;5113871;28;20543;-58
2022/05/22 00:45:55;;;;;;;1.47;0.30;;;16.20;1.00;;;;;;5112218;28;20449;-59
2022/05/22 00:48:23;;;;;;;0.70;0.40;;;16.10;90.70;;;;;;5113441;28;20461;-58
2022/05/22 00:50:51;;;;;;;0.70;0.50;;;16.10;99.90;;;;;;5107028;28;20445;-58
2022/05/22 00:53:18;;;;;;;0.70;0.47;;;16.00;99.90;;;;;;5098326;28;20488;-59
2022/05/22 00:55:46;;;;;;;1.23;0.40;;;15.80;1.00;;;;;;5113844;28;20444;-59
2022/05/22 00:58:15;;;;;;;2.30;0.40;;;15.90;99.90;;;;;;5114630;28;20486;-58
2022/05/22 01:00:44;;;;;;;1.23;0.40;;;16.10;1.00;;;;;;5113918;28;20448;-59
2022/05/22 01:03:27;;;;;;;0.60;0.47;;;16.20;99.90;;;;;;5104362;28;20494;-58
2022/05/22 01:05:55;;;;;;;0.70;0.40;;;16.20;99.90;;;;;;5114223;28;20444;-59
2022/05/22 01:08:22;;;;;;;0.80;0.50;;;16.20;99.90;;;;;;5106085;28;20458;-59
2022/05/22 01:10:53;;;;;;;0.70;0.40;;;16.10;72.30;;;;;;5097883;28;20809;-59
2022/05/22 01:13:25;;;;;;;0.60;0.40;;;16.00;99.90;;;;;;5115337;28;20460;-58
2022/05/22 01:15:53;;;;;;;0.70;0.40;;;16.10;99.90;;;;;;5115567;28;20948;-59
2022/05/22 01:18:20;;;;;;;0.60;0.40;;;16.00;99.90;;;;;;5112679;28;20467;-58
2022/05/22 01:20:48;;;;;;;0.60;0.43;;;15.90;99.90;;;;;;5110163;28;20847;-58
2022/05/22 01:23:17;;;;;;;0.87;0.50;;;15.80;99.90;;;;;;5115313;28;20448;-59
2022/05/22 01:25:44;;;;;;;0.60;0.40;;;15.70;99.90;;;;;;5114127;28;20887;-59
2022/05/22 01:28:14;;;;;;;0.70;0.40;;;15.60;1.00;;;;;;5115880;28;20440;-59
2022/05/22 01:30:42;;;;;;;0.83;0.50;;;15.50;1.00;;;;;;5109198;28;20917;-58
2022/05/22 01:33:09;;;;;;;0.50;0.30;;;15.50;99.90;;;;;;5114318;28;20476;-58
2022/05/22 01:35:36;;;;;;;0.83;0.40;;;15.50;99.90;;;;;;5101109;28;20532;-58
2022/05/22 01:38:05;;;;;;;0.70;0.40;;;15.60;99.90;;;;;;5094522;28;20477;-59
2022/05/22 01:40:34;;;;;;;0.60;0.40;;;15.70;62.30;;;;;;5105778;28;20460;-58
2022/05/22 01:43:01;;;;;;;0.60;0.40;;;15.60;1.00;;;;;;5118387;28;20452;-58
2022/05/22 01:45:29;;;;;;;1.10;0.50;;;15.60;86.80;;;;;;5118632;28;20444;-58
2022/05/22 01:47:56;;;;;;;0.63;0.50;;;15.60;1.00;;;;;;5111701;28;20465;-59
2022/05/22 01:50:23;;;;;;;0.73;0.43;;;15.50;15.30;;;;;;5118543;28;20538;-59
2022/05/22 01:52:51;;;;;;;1.27;0.50;;;15.50;75.00;;;;;;5114903;28;20464;-59
2022/05/22 01:55:18;;;;;;;0.83;0.40;;;15.50;47.30;;;;;;5118292;28;20952;-62
2022/05/22 01:57:47;;;;;;;0.70;0.50;;;15.40;99.90;;;;;;5113598;28;20490;-58
2022/05/22 02:00:16;;;;;;;0.90;0.57;;;15.20;1.00;;;;;;5118983;28;20532;-59
2022/05/22 02:02:43;;;;;;;0.97;0.60;;;15.10;70.60;;;;;;5118283;28;20466;-59
2022/05/22 02:05:10;;;;;;;0.80;0.60;;;15.00;99.90;;;;;;5118906;28;20883;-58
2022/05/22 02:10:22;;;;;;;0.77;0.50;;;14.90;1.00;;;;;;5116693;28;20466;-58
2022/05/22 02:12:51;;;;;;;1.47;0.70;;;15.10;1.00;;;;;;5116349;28;20452;-58
2022/05/22 02:15:19;;;;;;;0.70;0.50;;;15.10;1.00;;;;;;5115288;28;20479;-58
2022/05/22 02:17:45;;;;;;;0.90;0.60;;;15.30;1.00;;;;;;5118151;28;20484;-59
2022/05/22 02:20:13;;;;;;;1.07;0.60;;;15.30;99.90;;;;;;5116388;28;20470;-58
2022/05/22 02:22:41;;;;;;;1.80;0.70;;;15.30;1.00;;;;;;5118966;28;20531;-59
2022/05/22 02:25:09;;;;;;;1.00;0.70;;;15.40;99.90;;;;;;5115440;28;20790;-58
2022/05/22 02:27:36;;;;;;;0.93;0.80;;;15.30;1.00;;;;;;5102746;28;20457;-58
2022/05/22 02:30:08;;;;;;;2.33;0.90;;;15.20;99.90;;;;;;5116592;28;20540;-58
2022/05/22 02:32:36;;;;;;;0.83;0.60;;;15.10;10.50;;;;;;5118146;28;20762;-58
2022/05/22 02:35:04;;;;;;;0.93;0.80;;;15.20;99.90;;;;;;5114992;28;20452;-59
2022/05/22 02:37:31;;;;;;;1.33;0.97;;;15.10;99.90;;;;;;5109645;28;20483;-59
2022/05/22 02:39:58;;;;;;;1.97;1.00;;;15.00;99.90;;;;;;5116568;28;20449;-58
2022/05/22 02:42:25;;;;;;;1.80;0.80;;;14.90;99.90;;;;;;5117758;28;20758;-58
2022/05/22 02:44:52;;;;;;;1.00;0.80;;;14.80;99.90;;;;;;5118041;28;20536;-60
2022/05/22 02:47:21;;;;;;;2.40;0.80;;;14.70;1.00;;;;;;5114253;28;20548;-58
2022/05/22 02:49:48;;;;;;;1.07;0.83;;;14.80;1.00;;;;;;5117770;28;20502;-59
2022/05/22 02:52:15;;;;;;;1.50;0.80;;;14.80;99.90;;;;;;5112884;27;20465;-57
2022/05/22 02:54:41;;;;;;;1.17;0.80;;;14.80;99.90;;;;;;5102448;28;20884;-58
2022/05/22 02:57:08;;;;;;;1.00;0.73;;;14.70;99.90;;;;;;5108217;28;20507;-58
2022/05/22 02:59:36;;;;;;;0.97;0.60;;;14.70;1.00;;;;;;5117284;28;21097;-58
2022/05/22 03:02:03;;;;;;;1.90;0.80;;;14.70;99.90;;;;;;5115145;28;20774;-59
2022/05/22 03:04:32;;;;;;;2.03;0.80;;;14.60;99.90;;;;;;5113655;28;20467;-58
2022/05/22 03:06:59;;;;;;;0.90;0.70;;;14.60;99.90;;;;;;5112750;28;20555;-59
2022/05/22 03:09:26;;;;;;;0.80;0.70;;;14.60;99.90;;;;;;5116042;28;21117;-59
2022/05/22 03:11:54;;;;;;;0.80;0.60;;;14.50;99.90;;;;;;5117246;28;20448;-57
2022/05/22 03:14:21;;;;;;;0.80;0.60;;;14.50;99.90;;;;;;5114368;28;20461;-58
2022/05/22 03:16:48;;;;;;;0.80;0.70;;;14.50;1.00;;;;;;5115835;28;20542;-58
2022/05/22 03:19:15;;;;;;;0.70;0.57;;;14.30;99.90;;;;;;5112915;28;20495;-57
2022/05/22 03:21:44;;;;;;;0.83;0.57;;;14.20;1.00;;;;;;5117365;28;20884;-58
2022/05/22 03:24:10;;;;;;;0.70;0.60;;;14.40;1.00;;;;;;5112840;28;20776;-58
2022/05/22 03:26:37;;;;;;;1.67;0.83;;;14.40;99.90;;;;;;5117833;28;20445;-59
2022/05/22 03:29:04;;;;;;;2.10;0.80;;;14.60;99.90;;;;;;5116721;28;20994;-58
2022/05/22 03:31:31;;;;;;;0.77;0.60;;;14.70;1.00;;;;;;5108335;28;20463;-58
2022/05/22 03:33:58;;;;;;;0.77;0.60;;;14.60;1.00;;;;;;5111907;28;20493;-57
2022/05/22 03:36:25;;;;;;;1.17;0.60;;;14.60;99.90;;;;;;5096391;28;20445;-58
2022/05/22 03:38:53;;;;;;;1.07;0.70;;;14.60;66.10;;;;;;5096799;28;20488;-58
2022/05/22 03:41:20;;;;;;;0.87;0.60;;;14.60;1.00;;;;;;5105408;28;20553;-58
2022/05/22 03:43:47;;;;;;;0.80;0.60;;;14.40;99.90;;;;;;5116285;28;20760;-58
2022/05/22 03:46:14;;;;;;;0.80;0.57;;;14.30;99.90;;;;;;5114215;28;20461;-58
2022/05/22 03:48:42;;;;;;;1.17;0.60;;;14.20;1.00;;;;;;5116323;28;20550;-59
2022/05/22 03:51:09;;;;;;;0.80;0.60;;;14.00;1.00;;;;;;5113033;28;20464;-58
2022/05/22 03:53:36;;;;;;;0.80;0.50;;;14.00;1.00;;;;;;5116765;28;20452;-58
2022/05/22 03:56:11;;;;;;;0.80;0.53;;;14.00;1.00;;;;;;5116024;28;20970;-58
2022/05/22 03:58:38;;;;;;;5.70;0.60;;;13.90;1.00;;;;;;5114008;28;20631;-63
2022/05/22 04:01:06;;;;;;;0.80;0.57;;;13.90;1.00;;;;;;5115475;28;20942;-57
2022/05/22 04:03:34;;;;;;;1.33;0.70;;;13.80;1.00;;;;;;5110266;28;20465;-58
2022/05/22 04:06:01;;;;;;;0.80;0.63;;;13.80;1.00;;;;;;5116092;28;20573;-59
2022/05/22 04:08:28;;;;;;;1.50;0.50;;;13.90;1.00;;;;;;5115172;28;20459;-58
2022/05/22 04:10:55;;;;;;;1.00;0.70;;;13.90;1.00;;;;;;5113738;28;20460;-58
2022/05/22 04:13:24;;;;;;;1.10;0.60;;;13.90;1.00;;;;;;5113261;28;20460;-58
2022/05/22 04:15:51;;;;;;;1.50;0.70;;;13.90;1.00;;;;;;5115293;28;20440;-58
2022/05/22 04:18:18;;;;;;;0.80;0.57;;;13.90;1.00;;;;;;5115232;28;20590;-57
2022/05/22 04:20:45;;;;;;;0.83;0.60;;;13.90;1.00;;;;;;5114672;28;20496;-58
2022/05/22 04:25:59;;;;;;;2.30;0.60;;;13.80;1.00;;;;;;5116338;28;20473;-58
2022/05/22 04:28:29;;;;;;;0.80;0.60;;;14.00;1.00;;;;;;5116650;28;20449;-58
2022/05/22 04:30:57;;;;;;;0.90;0.80;;;14.10;1.00;;;;;;5114086;28;20461;-58
2022/05/22 04:33:24;;;;;;;0.73;0.63;;;14.10;1.00;;;;;;5115109;28;20507;-57
2022/05/22 04:35:51;;;;;;;0.80;0.60;;;14.10;1.00;;;;;;5100411;28;20463;-58
2022/05/22 04:38:18;;;;;;;1.30;0.73;;;14.10;1.00;;;;;;5095634;28;20487;-59
2022/05/22 04:40:54;;;;;;;0.83;0.60;;;14.10;1.00;;;;;;5100914;28;20555;-58
2022/05/22 04:43:21;;;;;;;0.83;0.67;;;14.20;1.00;;;;;;5112205;28;20930;-58
2022/05/22 04:45:50;;;;;;;1.10;0.60;;;14.10;1.00;;;;;;5116386;28;20909;-59
2022/05/22 04:48:17;;;;;;;1.50;0.53;;;14.20;1.00;;;;;;5116300;28;20509;-57
2022/05/22 04:50:46;;;;;;;1.00;0.70;;;14.20;1.00;;;;;;5112953;28;20471;-59
2022/05/22 04:53:13;;;;;;;0.70;0.60;;;14.30;1.00;;;;;;5111997;28;20464;-59
2022/05/22 04:55:40;;;;;;;0.90;0.60;;;14.30;1.00;;;;;;5110526;28;20515;-58
2022/05/22 04:58:07;;;;;;;2.00;0.70;;;14.30;1.00;;;;;;5098746;28;20485;-58
2022/05/22 05:00:35;;;;;;;0.97;0.60;;;14.30;1.00;;;;;;5095268;28;20469;-58
2022/05/22 05:03:03;;;;;;;0.97;0.70;;;14.30;1.00;;;;;;5095956;28;20583;-59
2022/05/22 05:05:30;;;;;;;4.47;0.70;;;14.30;1.00;;;;;;5115029;28;20460;-58
2022/05/22 05:07:57;;;;;;;1.03;0.60;;;14.40;1.00;;;;;;5116570;28;20547;-58
2022/05/22 05:10:25;;;;;;;1.50;0.67;;;14.50;1.00;;;;;;5114683;28;20441;-58
2022/05/22 05:12:52;;;;;;;0.70;0.57;;;14.50;1.00;;;;;;5113304;28;20468;-58
2022/05/22 05:15:21;;;;;;;1.70;0.70;;;14.50;1.00;;;;;;5116487;28;20451;-57
2022/05/22 05:17:48;;;;;;;1.30;0.70;;;14.50;1.00;;;;;;5120168;28;20506;-58
2022/05/22 05:20:20;;;;;;;1.00;0.60;;;14.50;1.00;;;;;;5120323;28;20872;-58
2022/05/22 05:22:47;;;;;;;1.00;0.70;;;14.40;1.00;;;;;;5113452;28;20469;-58
2022/05/22 05:25:14;;;;;;;1.17;0.63;;;14.40;1.00;;;;;;5120166;28;20451;-58
2022/05/22 05:27:41;;;;;;;1.00;0.63;;;14.40;1.00;;;;;;5119595;28;20551;-58
2022/05/22 05:30:10;;;;;;;0.60;0.50;;;14.40;1.00;;;;;;5108313;28;20449;-58
2022/05/22 05:32:37;;;;;;;1.00;0.60;;;14.50;1.00;;;;;;5114196;28;20562;-58
2022/05/22 05:35:06;;;;;;;0.70;0.50;;;14.50;1.00;;;;;;5119199;28;20527;-58
2022/05/22 05:37:35;;;;;;;1.00;0.60;;;14.50;1.00;;;;;;5119732;28;20485;-58
2022/05/22 05:40:03;;;;;;;1.53;0.67;;;14.60;99.90;;;;;;5114932;28;20488;-59
2022/05/22 05:42:33;;;;;;;2.30;0.70;;;14.60;1.00;;;;;;5099221;28;20453;-58
2022/05/22 05:45:00;;;;;;;0.83;0.60;;;14.70;99.90;;;;;;5099006;28;20448;-60
2022/05/22 05:47:27;;;;;;;1.10;0.70;;;14.80;99.90;;;;;;5098725;28;20555;-58
2022/05/22 05:49:54;;;;;;;0.90;0.63;;;14.80;99.90;;;;;;5109925;28;20466;-59
2022/05/22 05:52:21;;;;;;;0.80;0.60;;;14.80;99.90;;;;;;5118939;28;20456;-59
2022/05/22 05:54:49;;;;;;;1.03;0.60;;;14.80;99.90;;;;;;5117015;28;20495;-59
2022/05/22 05:57:16;;;;;;;1.37;0.50;;;14.90;99.90;;;;;;5116148;28;20488;-57
2022/05/22 05:59:44;;;;;;;1.60;0.50;;;14.90;99.90;;;;;;5114908;28;20982;-57
2022/05/22 06:02:13;;;;;;;1.97;0.50;;;15.00;99.90;;;;;;5117441;28;20510;-57
2022/05/22 06:04:40;;;;;;;0.80;0.50;;;15.10;99.90;;;;;;5115138;28;20461;-59
2022/05/22 06:07:08;;;;;;;0.50;0.40;;;15.20;8.50;;;;;;5118421;28;20449;-58
2022/05/22 06:09:35;;;;;;;0.90;0.60;;;15.30;1.00;;;;;;5115765;28;20453;-58
2022/05/22 06:12:04;;;;;;;0.70;0.50;;;15.40;99.90;;;;;;5116177;28;20449;-58
2022/05/22 06:14:32;;;;;;;1.00;0.53;;;15.60;1.00;;;;;;5111695;28;20549;-58
2022/05/22 06:16:59;;;;;;;0.60;0.50;;;15.70;99.90;;;;;;5117550;28;20535;-58
2022/05/22 06:22:07;;;;;;;1.40;0.50;;;15.90;1.00;;;;;;5114646;28;20433;-58
2022/05/22 06:24:35;;;;;;;0.70;0.50;;;16.10;1.00;;;;;;5116108;28;20537;-59
2022/05/22 06:27:04;;;;;;;0.60;0.50;;;16.30;99.90;;;;;;5116645;28;21053;-58
2022/05/22 06:29:31;;;;;;;1.20;0.40;;;16.40;1.00;;;;;;5117073;28;20527;-58
2022/05/22 06:31:58;;;;;;;0.67;0.40;;;16.50;1.00;;;;;;5115320;28;20452;-57
2022/05/22 06:34:25;;;;;;;2.10;0.50;;;16.60;99.90;;;;;;5114720;27;20532;-56
2022/05/22 06:36:52;;;;;;;0.97;0.50;;;16.70;99.90;;;;;;5098260;28;20477;-56
2022/05/22 06:42:12;;;;;;;1.70;0.40;;;16.90;1.00;;;;;;5113054;28;20975;-57
2022/05/22 06:44:39;;;;;;;0.70;0.50;;;16.90;1.00;;;;;;5118177;28;20483;-58
2022/05/22 06:47:06;;;;;;;1.30;0.50;;;17.00;1.00;;;;;;5117768;28;20451;-56
2022/05/22 06:49:33;;;;;;;0.90;0.50;;;17.20;1.00;;;;;;5116114;27;20530;-56
2022/05/22 06:52:00;;;;;;;1.33;0.40;;;17.30;99.90;;;;;;5115578;28;20449;-58
2022/05/22 06:54:30;;;;;;;1.20;0.50;;;17.40;99.90;;;;;;5117022;28;20528;-59
2022/05/22 06:56:57;;;;;;;0.60;0.50;;;17.50;99.90;;;;;;5116726;28;20555;-58
2022/05/22 06:59:25;;;;;;;0.60;0.40;;;17.50;99.90;;;;;;5105756;28;20854;-58
2022/05/22 07:01:52;;;;;;;0.70;0.47;;;17.60;99.90;;;;;;5096426;28;20536;-58
2022/05/22 07:04:21;;;;;;;0.60;0.30;;;17.70;99.90;;;;;;5096862;28;20453;-59
2022/05/22 07:06:48;;;;;;;0.60;0.40;;;17.90;99.90;;;;;;5096110;28;20450;-58
2022/05/22 07:09:15;;;;;;;0.60;0.40;;;18.10;29.80;;;;;;5111140;28;20551;-59
2022/05/22 07:11:42;;;;;;;1.17;0.40;;;18.20;30.70;;;;;;5116475;28;20761;-57
2022/05/22 07:14:13;;;;;;;0.67;0.60;;;18.30;12.60;;;;;;5117588;28;20909;-58
2022/05/22 07:16:42;;;;;;;0.50;0.40;;;18.30;15.10;;;;;;5114972;27;20887;-58
2022/05/22 07:19:11;;;;;;;0.70;0.40;;;18.30;43.30;;;;;;5113885;28;20484;-57
2022/05/22 07:21:37;;;;;;;0.60;0.40;;;18.40;1.00;;;;;;5116367;28;20478;-59
2022/05/22 07:24:05;;;;;;;0.90;0.50;;;18.50;1.00;;;;;;5116016;28;20459;-58
2022/05/22 07:26:32;;;;;;;1.40;0.40;;;18.60;1.00;;;;;;5104886;28;20468;-57
2022/05/22 07:29:01;;;;;;;1.07;0.33;;;18.70;1.00;;;;;;5116456;28;21184;-58
2022/05/22 07:31:28;;;;;;;0.60;0.40;;;18.80;1.00;;;;;;5115762;28;20748;-58
2022/05/22 07:33:58;;;;;;;0.73;0.40;;;18.90;1.00;;;;;;5114888;28;21056;-59
2022/05/22 07:36:25;;;;;;;1.73;0.40;;;19.10;1.00;;;;;;5108427;28;20463;-59
2022/05/22 07:38:52;;;;;;;0.50;0.40;;;19.30;1.00;;;;;;5114406;28;20855;-58
2022/05/22 07:41:19;;;;;;;1.70;0.60;;;19.40;1.00;;;;;;5113990;28;20444;-60
2022/05/22 07:43:46;;;;;;;0.77;0.50;;;19.50;1.00;;;;;;5104569;28;20548;-59
2022/05/22 07:46:14;;;;;;;0.73;0.50;;;19.70;1.00;;;;;;5109947;28;20594;-59
2022/05/22 07:48:42;;;;;;;0.70;0.60;;;19.80;1.00;;;;;;5108652;28;20535;-58
2022/05/22 07:51:11;;;;;;;2.30;0.50;;;19.90;1.00;;;;;;5099789;28;20880;-58
2022/05/22 07:53:39;;;;;;;0.70;0.50;;;20.00;1.00;;;;;;5110617;28;20918;-58
2022/05/22 07:56:06;;;;;;;0.63;0.47;;;20.10;1.00;;;;;;5114966;28;20809;-59
2022/05/22 07:58:34;;;;;;;0.70;0.40;;;20.00;1.00;;;;;;5107531;28;20941;-59
2022/05/22 08:01:02;;;;;;;0.60;0.40;;;20.10;1.00;;;;;;5114569;28;20457;-59
2022/05/22 08:03:29;;;;;;;0.60;0.40;;;20.10;1.00;;;;;;5110609;28;20465;-59
2022/05/22 08:05:56;;;;;;;1.00;0.40;;;20.00;1.00;;;;;;5113792;28;20464;-58
2022/05/22 08:08:25;;;;;;;0.60;0.40;;;19.90;1.00;;;;;;5099591;28;20445;-58
2022/05/22 08:10:54;;;;;;;0.63;0.40;;;19.90;1.00;;;;;;5112905;28;20436;-59
2022/05/22 08:13:21;;;;;;;0.70;0.40;;;20.00;1.00;;;;;;5111122;28;20460;-59
2022/05/22 08:15:48;;;;;;;1.37;0.50;;;20.10;1.00;;;;;;5115593;28;20443;-59
2022/05/22 08:18:15;;;;;;;0.60;0.40;;;20.30;1.00;;;;;;5110819;28;20492;-58
2022/05/22 08:20:44;;;;;;;0.63;0.37;;;20.40;1.00;;;;;;5113667;28;20471;-58
2022/05/22 08:23:13;;;;;;;1.47;0.50;;;20.30;1.00;;;;;;5115080;28;20517;-58
2022/05/22 08:25:41;;;;;;;2.53;0.60;;;20.50;1.00;;;;;;5108725;28;20553;-58
2022/05/22 08:28:08;;;;;;;0.90;0.50;;;20.70;1.00;;;;;;5102141;28;20464;-58
2022/05/22 08:30:35;;;;;;;0.83;0.40;;;20.80;1.00;;;;;;5103940;28;20794;-58
2022/05/22 08:33:03;;;;;;;0.60;0.40;;;20.80;1.00;;;;;;5114728;28;20479;-59
2022/05/22 08:35:32;;;;;;;0.60;0.40;;;20.70;1.00;;;;;;5114457;28;20445;-58
2022/05/22 08:37:59;;;;;;;0.70;0.60;;;20.80;1.00;;;;;;5113655;28;20456;-58
2022/05/22 08:40:29;;;;;;;0.70;0.50;;;21.00;1.00;;;;;;5111974;28;20476;-58
2022/05/22 08:43:03;;;;;;;0.50;0.40;;;20.90;1.00;;;;;;5115251;28;20448;-58
2022/05/22 08:45:33;;;;;;;0.60;0.40;;;20.80;1.00;;;;;;5115301;28;20459;-58
2022/05/22 08:48:08;;;;;;;0.50;0.40;;;20.70;1.00;;;;;;5108408;28;20560;-58
2022/05/22 08:50:37;;;;;;;0.70;0.50;;;20.80;1.00;;;;;;5097149;28;20519;-59
2022/05/22 08:53:09;;;;;;;57.67;31.67;;;20.90;1.00;;;;;;5118454;28;20546;-58
2022/05/22 09:01:24;;;;;;;0.80;0.50;;;21.40;1.00;;;;;;5118664;28;21061;-58
2022/05/22 09:03:56;;;;;;;0.80;0.43;;;21.60;1.00;;;;;;5119166;28;20474;-59
2022/05/22 09:06:30;;;;;;;0.90;0.40;;;21.60;1.00;;;;;;5116139;28;20864;-59
2022/05/22 09:08:57;;;;;;;0.80;0.50;;;21.60;1.00;;;;;;5117929;28;20440;-58
2022/05/22 09:11:38;;;;;;;2.60;0.60;;;21.70;1.00;;;;;;5118962;27;20444;-58
2022/05/22 09:14:10;;;;;;;1.73;0.47;;;21.60;1.00;;;;;;5118937;28;20823;-58
2022/05/22 09:16:44;;;;;;;2.10;0.40;;;21.60;1.00;;;;;;5111993;28;20529;-58
2022/05/22 09:19:13;;;;;;;0.60;0.40;;;21.60;1.00;;;;;;5118941;28;20539;-57
2022/05/22 09:21:50;;;;;;;0.80;0.50;;;21.80;1.00;;;;;;5116658;28;20531;-59
2022/05/22 09:24:30;;;;;;;0.53;0.40;;;22.00;1.00;;;;;;5114214;28;20566;-58
2022/05/22 09:27:08;;;;;;;1.20;0.40;;;21.90;1.00;;;;;;5117817;28;20452;-59
2022/05/22 09:29:58;;;;;;;0.60;0.30;;;22.00;1.00;;;;;;5118262;28;20456;-59
2022/05/22 09:32:48;;;;;;;0.60;0.50;;;22.10;1.00;;;;;;5114695;28;20500;-59
2022/05/22 09:35:25;;;;;;;0.50;0.40;;;22.20;1.00;;;;;;5112946;28;20955;-58
2022/05/22 09:38:06;;;;;;;1.40;0.57;;;22.00;1.00;;;;;;5118494;27;20456;-58
2022/05/22 09:40:39;;;;;;;1.93;0.50;;;22.00;1.00;;;;;;5102630;28;20508;-58
2022/05/22 09:43:47;;;;;;;0.60;0.37;;;22.10;1.00;;;;;;5106430;28;20464;-59
2022/05/22 09:46:33;;;;;;;0.50;0.40;;;22.30;1.00;;;;;;5104961;28;20456;-58
2022/05/22 09:49:15;;;;;;;0.50;0.40;;;22.40;1.00;;;;;;5106631;28;20574;-58
2022/05/22 09:51:51;;;;;;;0.60;0.40;;;22.40;1.00;;;;;;5105246;28;20899;-58
2022/05/22 09:54:40;;;;;;;0.50;0.40;;;22.50;1.00;;;;;;5114259;28;20898;-58
2022/05/22 09:57:19;;;;;;;0.90;0.57;;;22.70;1.00;;;;;;5114973;28;20844;-58
2022/05/22 10:00:02;;;;;;;0.70;0.50;;;23.10;1.00;;;;;;5118009;28;20472;-58
2022/05/22 10:02:40;;;;;;;0.60;0.40;;;23.20;1.00;;;;;;5104769;28;20912;-58
2022/05/22 10:05:16;;;;;;;0.77;0.40;;;23.50;1.00;;;;;;5116594;28;20956;-58
2022/05/22 10:07:50;;;;;;;0.53;0.40;;;23.60;1.00;;;;;;5117125;27;20915;-58
2022/05/22 10:10:28;;;;;;;0.50;0.40;;;23.70;1.00;;;;;;5109707;28;20484;-56
2022/05/22 10:12:59;;;;;;;0.60;0.50;;;23.90;1.00;;;;;;5117403;28;20475;-59
2022/05/22 10:15:43;;;;;;;0.57;0.40;;;23.90;1.00;;;;;;5118003;28;20484;-58
2022/05/22 10:18:27;;;;;;;0.70;0.40;;;24.10;1.00;;;;;;5116493;28;20556;-58
2022/05/22 10:21:04;;;;;;;0.80;0.40;;;24.00;1.00;;;;;;5110455;28;20567;-59
2022/05/22 10:23:43;;;;;;;0.70;0.47;;;24.20;1.00;;;;;;5118180;28;20452;-58
2022/05/22 10:26:19;;;;;;;0.53;0.33;;;24.70;1.00;;;;;;5114197;28;20463;-58
2022/05/22 10:28:56;;;;;;;0.70;0.40;;;24.90;1.00;;;;;;5114505;28;20496;-58
2022/05/22 10:31:30;;;;;;;0.50;0.40;;;24.70;1.00;;;;;;5116780;28;20443;-58
2022/05/22 10:34:05;;;;;;;0.50;0.40;;;25.10;1.00;;;;;;5114984;28;20937;-58
2022/05/22 10:36:37;;;;;;;2.20;0.50;;;25.40;1.00;;;;;;5111711;28;20483;-59
2022/05/22 10:39:07;;;;;;;0.70;0.40;;;25.30;1.00;;;;;;5110624;28;20791;-58
2022/05/22 10:44:28;;;;;;;0.50;0.40;;;26.00;1.00;;;;;;5111161;28;20481;-58
2022/05/22 10:46:58;;;;;;;0.57;0.30;;;26.10;1.00;;;;;;5111826;28;20463;-59
2022/05/22 10:49:36;;;;;;;0.70;0.43;;;26.00;1.00;;;;;;5114136;28;20505;-59
2022/05/22 10:52:04;;;;;;;0.53;0.40;;;26.10;1.00;;;;;;5115207;28;20531;-58
2022/05/22 10:54:34;;;;;;;0.60;0.30;;;26.60;1.00;;;;;;5111960;28;20974;-58
2022/05/22 10:57:09;;;;;;;0.70;0.40;;;27.10;1.00;;;;;;5113047;28;20452;-59
2022/05/22 10:59:36;;;;;;;1.07;0.40;;;27.20;1.00;;;;;;5115823;28;20599;-58
2022/05/22 11:02:05;;;;;;;0.60;0.50;;;27.50;1.00;;;;;;5114275;28;20596;-58
2022/05/22 11:04:38;;;;;;;0.50;0.40;;;27.60;1.00;;;;;;5111253;28;20536;-58
2022/05/22 11:07:07;;;;;;;0.50;0.40;;;28.00;1.00;;;;;;5115347;28;20748;-59
2022/05/22 11:09:41;;;;;;;0.60;0.50;;;28.30;1.00;;;;;;5115111;28;20437;-58
2022/05/22 11:12:10;;;;;;;0.57;0.40;;;28.20;1.00;;;;;;5110507;28;20488;-58
2022/05/22 11:14:37;;;;;;;0.50;0.40;;;27.50;1.00;;;;;;5111289;28;20558;-58
2022/05/22 11:17:12;;;;;;;3.53;0.40;;;27.10;1.00;;;;;;5105388;28;20457;-58
2022/05/22 11:19:42;;;;;;;1.87;0.50;;;27.00;1.00;;;;;;5105628;28;20567;-58
2022/05/22 11:22:27;;;;;;;1.53;0.50;;;26.80;1.00;;;;;;5106599;28;20963;-59
2022/05/22 11:25:11;;;;;;;1.00;0.40;;;26.70;1.00;;;;;;5109088;28;20911;-59
2022/05/22 11:27:55;;;;;;;0.63;0.50;;;26.80;1.00;;;;;;5101192;28;20562;-59
2022/05/22 11:30:35;;;;;;;0.50;0.40;;;27.30;1.00;;;;;;5102097;28;20504;-60
2022/05/22 11:33:24;;;;;;;1.30;0.50;;;27.60;1.00;;;;;;5100710;28;20470;-59
2022/05/22 11:36:03;;;;;;;1.00;0.47;;;27.40;1.00;;;;;;5105394;28;20541;-59
2022/05/22 11:38:54;;;;;;;0.60;0.40;;;27.30;1.00;;;;;;5102079;28;20472;-59
2022/05/22 11:41:28;;;;;;;0.77;0.50;;;27.50;1.00;;;;;;5099144;28;21032;-58
2022/05/22 11:44:37;;;;;;;0.50;0.40;;;28.00;1.00;;;;;;5102470;28;20445;-58
2022/05/22 11:47:24;;;;;;;0.60;0.40;;;28.00;1.00;;;;;;5104676;28;20464;-61
2022/05/22 11:50:00;;;;;;;1.13;0.43;;;27.90;1.00;;;;;;5104121;28;20575;-57
2022/05/22 11:52:57;;;;;;;1.00;0.50;;;28.20;1.00;;;;;;5099315;28;20453;-58
2022/05/22 11:55:37;;;;;;;0.70;0.50;;;28.20;1.00;;;;;;5094309;28;20503;-59
2022/05/22 11:58:18;;;;;;;1.67;0.50;;;28.60;1.00;;;;;;5099744;28;20437;-59
2022/05/22 12:00:52;;;;;;;0.87;0.40;;;28.80;1.00;;;;;;5100755;28;20546;-59
2022/05/22 12:03:55;;;;;;;0.70;0.40;;;28.70;1.00;;;;;;5101436;28;20790;-58
2022/05/22 12:06:35;;;;;;;0.57;0.47;;;28.70;1.00;;;;;;5100896;28;20449;-59
2022/05/22 12:09:15;;;;;;;0.70;0.50;;;29.10;1.00;;;;;;5105513;28;20438;-59
2022/05/22 12:11:57;;;;;;;0.70;0.40;;;29.40;1.00;;;;;;5106385;28;20453;-59
2022/05/22 12:14:33;;;;;;;0.50;0.40;;;29.70;1.00;;;;;;5105143;28;20452;-58
2022/05/22 12:17:07;;;;;;;0.60;0.40;;;29.60;1.00;;;;;;5103968;28;20501;-58
2022/05/22 12:19:41;;;;;;;0.53;0.40;;;29.40;1.00;;;;;;5099449;28;20484;-59
2022/05/22 12:22:17;;;;;;;0.60;0.40;;;29.20;1.00;;;;;;5106950;28;20444;-59
2022/05/22 12:24:51;;;;;;;1.53;0.50;;;28.90;1.00;;;;;;5099248;28;20444;-59
2022/05/22 12:27:26;;;;;;;0.73;0.50;;;29.20;1.00;;;;;;5104407;28;20448;-58
2022/05/22 12:30:05;;;;;;;0.70;0.50;;;29.10;1.00;;;;;;5100523;28;20449;-58
2022/05/22 12:32:38;;;;;;;0.70;0.50;;;28.00;1.00;;;;;;5104406;28;20563;-59
2022/05/22 12:35:09;;;;;;;1.27;0.50;;;27.90;1.00;;;;;;5100505;28;20514;-58
2022/05/22 12:37:40;;;;;;;0.70;0.40;;;28.20;1.00;;;;;;5107258;28;20448;-59
2022/05/22 12:40:32;;;;;;;0.83;0.40;;;28.40;1.00;;;;;;5103723;28;20579;-58
2022/05/22 12:43:01;;;;;;;0.63;0.40;;;28.60;1.00;;;;;;5103576;28;20488;-59
2022/05/22 12:45:30;;;;;;;0.50;0.40;;;28.70;1.00;;;;;;5102428;28;20457;-59
2022/05/22 12:48:09;;;;;;;0.70;0.40;;;28.30;1.00;;;;;;5106265;28;20472;-59
2022/05/22 12:50:45;;;;;;;0.90;0.50;;;27.90;1.00;;;;;;5107817;28;20476;-59
2022/05/22 12:53:19;;;;;;;2.63;1.47;;;27.90;1.00;;;;;;5107885;28;20467;-60
2022/05/22 12:55:48;;;;;;;3.47;1.80;;;28.00;1.00;;;;;;5106422;28;20452;-58
2022/05/22 12:58:32;;;;;;;0.80;0.53;;;28.20;1.00;;;;;;5102874;28;20445;-59
2022/05/22 13:01:00;;;;;;;0.53;0.40;;;28.60;1.00;;;;;;5102414;28;20572;-59
2022/05/22 13:03:36;;;;;;;0.60;0.40;;;28.70;1.00;;;;;;5104615;28;20776;-59
2022/05/22 13:06:07;;;;;;;0.80;0.50;;;28.70;1.00;;;;;;5103035;28;20448;-59
2022/05/22 13:08:41;;;;;;;0.80;0.40;;;28.40;1.00;;;;;;5109956;28;20444;-59
2022/05/22 13:11:13;;;;;;;0.63;0.40;;;28.40;1.00;;;;;;5109959;28;20471;-59
2022/05/22 13:13:48;;;;;;;0.60;0.50;;;28.50;1.00;;;;;;5108043;28;20449;-59
2022/05/22 13:16:26;;;;;;;0.80;0.40;;;28.50;1.00;;;;;;5106474;28;20512;-58
2022/05/22 13:18:55;;;;;;;2.87;0.50;;;28.30;1.00;;;;;;5101954;28;20536;-59
2022/05/22 13:21:31;;;;;;;0.60;0.40;;;28.30;1.00;;;;;;5104433;28;20520;-59
2022/05/22 13:24:04;;;;;;;1.80;0.50;;;28.60;1.00;;;;;;5106658;28;20464;-59
2022/05/22 13:26:34;;;;;;;0.70;0.43;;;28.50;1.00;;;;;;5111076;28;20463;-59
2022/05/22 13:29:07;;;;;;;0.47;0.30;;;28.30;1.00;;;;;;5112158;28;20809;-59
2022/05/22 13:31:46;;;;;;;0.77;0.43;;;28.30;1.00;;;;;;5109166;28;20456;-59
2022/05/22 13:34:29;;;;;;;0.60;0.50;;;28.30;1.00;;;;;;5110123;28;20998;-58
2022/05/22 13:36:58;;;;;;;0.67;0.47;;;28.20;1.00;;;;;;5101725;28;20838;-59